Time;durP1;ratioP1;P1;durP2;ratioP2;P2;SDS_P1;SDS_P2;PMS_P1;PMS_P2;Temp;Humidity;BMP_temperature;BMP_pressure;BME280_temperature;BME280_humidity;BME280_pressure;Samples;Min_cycle;Max_cycle;Signal;HPM_P1;HPM_P2
2022/01/28 00:00:05;;;;;;;1.50;0.90;;;4.80;99.90;;;;;;5155267;27;20417;-54
2022/01/28 00:05:18;;;;;;;1.40;0.90;;;4.70;99.90;;;;;;5150665;27;20858;-52
2022/01/28 00:07:45;;;;;;;2.20;0.90;;;4.80;99.90;;;;;;5154375;27;20429;-53
2022/01/28 00:10:12;;;;;;;1.63;0.80;;;4.80;99.90;;;;;;5153574;27;20785;-53
2022/01/28 00:12:55;;;;;;;1.45;0.90;;;4.90;99.90;;;;;;5154677;27;20474;-53
2022/01/28 00:15:28;;;;;;;1.50;0.90;;;4.90;99.90;;;;;;5154169;27;20452;-55
2022/01/28 00:37:11;;;;;;;1.30;0.80;;;4.80;99.90;;;;;;5156836;27;20465;-53
2022/01/28 00:39:38;;;;;;;1.90;0.80;;;4.80;99.90;;;;;;5157478;27;20431;-54
2022/01/28 00:42:06;;;;;;;1.40;0.80;;;4.70;99.90;;;;;;5158675;27;20416;-52
2022/01/28 00:44:33;;;;;;;1.40;0.90;;;4.80;99.90;;;;;;5158817;27;20426;-50
2022/01/28 00:47:00;;;;;;;2.00;0.80;;;4.80;99.90;;;;;;5157743;27;20474;-52
2022/01/28 00:49:28;;;;;;;1.40;0.90;;;4.90;99.90;;;;;;5157566;27;20408;-53
2022/01/28 00:51:55;;;;;;;2.80;0.80;;;4.80;99.90;;;;;;5157674;27;20895;-53
2022/01/28 00:54:23;;;;;;;1.48;0.80;;;4.80;99.90;;;;;;5156816;27;20444;-53
2022/01/28 00:56:50;;;;;;;1.30;0.80;;;4.90;99.90;;;;;;5157946;27;20425;-54
2022/01/28 00:59:17;;;;;;;2.22;0.70;;;4.90;99.90;;;;;;5157882;27;20421;-52
2022/01/28 01:01:45;;;;;;;1.38;0.80;;;5.00;99.90;;;;;;5158202;27;20431;-55
2022/01/28 01:04:13;;;;;;;2.30;0.80;;;5.00;99.90;;;;;;5158600;27;20465;-53
2022/01/28 01:06:40;;;;;;;2.00;0.70;;;4.90;99.90;;;;;;5158219;27;20428;-54
2022/01/28 01:09:07;;;;;;;1.30;0.70;;;4.90;99.90;;;;;;5158185;27;20477;-54
2022/01/28 01:11:39;;;;;;;1.65;0.80;;;4.90;99.90;;;;;;5158247;27;20428;-50
2022/01/28 01:14:06;;;;;;;1.40;0.70;;;4.90;99.90;;;;;;5158770;27;20796;-53
2022/01/28 01:16:42;;;;;;;1.30;0.80;;;4.90;99.90;;;;;;5158181;27;20538;-55
2022/01/28 01:19:18;;;;;;;1.80;0.90;;;4.80;99.90;;;;;;5158598;27;20851;-55
2022/01/28 01:21:45;;;;;;;1.90;0.70;;;4.80;99.90;;;;;;5158411;27;20520;-56
2022/01/28 01:24:21;;;;;;;1.33;0.80;;;4.70;99.90;;;;;;5158399;27;20405;-55
2022/01/28 01:26:50;;;;;;;1.63;0.90;;;4.70;99.90;;;;;;5159393;27;20431;-56
2022/01/28 01:29:19;;;;;;;1.40;0.80;;;4.70;99.90;;;;;;5158802;27;20409;-54
2022/01/28 01:31:47;;;;;;;1.60;0.80;;;4.70;99.90;;;;;;5158376;27;20425;-55
2022/01/28 01:34:17;;;;;;;2.28;0.88;;;4.70;99.90;;;;;;5158795;27;20465;-53
2022/01/28 01:36:44;;;;;;;2.00;0.70;;;4.60;99.90;;;;;;5158530;27;20428;-52
2022/01/28 01:39:15;;;;;;;1.63;0.90;;;4.60;99.90;;;;;;5158377;27;20429;-56
2022/01/28 01:41:46;;;;;;;1.48;0.85;;;4.50;99.90;;;;;;5158434;27;20423;-54
2022/01/28 01:44:24;;;;;;;2.33;0.80;;;4.60;99.90;;;;;;5158209;27;20928;-52
2022/01/28 01:52:40;;;;;;;1.45;0.80;;;4.50;99.90;;;;;;5156451;27;20404;-53
2022/01/28 01:55:08;;;;;;;1.50;0.80;;;4.40;99.90;;;;;;5156757;27;20440;-48
2022/01/28 01:57:35;;;;;;;1.75;0.90;;;4.40;99.90;;;;;;5156773;27;20505;-49
2022/01/28 02:00:05;;;;;;;1.88;0.90;;;4.40;99.90;;;;;;5156448;27;20856;-53
2022/01/28 02:02:32;;;;;;;1.50;0.80;;;4.40;99.90;;;;;;5156380;27;20512;-51
2022/01/28 02:04:59;;;;;;;1.95;0.70;;;4.40;99.90;;;;;;5157436;27;20460;-53
2022/01/28 02:07:27;;;;;;;1.50;0.80;;;4.30;99.90;;;;;;5157877;27;20449;-54
2022/01/28 02:09:54;;;;;;;1.67;0.80;;;4.30;99.90;;;;;;5157649;27;20459;-54
2022/01/28 02:12:22;;;;;;;1.60;0.90;;;4.30;99.90;;;;;;5157369;27;20452;-51
2022/01/28 02:14:49;;;;;;;1.30;0.80;;;4.30;99.90;;;;;;5157881;27;20425;-54
2022/01/28 02:17:17;;;;;;;2.42;1.05;;;4.30;99.90;;;;;;5157902;27;20456;-54
2022/01/28 02:19:44;;;;;;;1.30;0.90;;;4.20;99.90;;;;;;5157542;27;20518;-52
2022/01/28 02:22:13;;;;;;;1.00;0.80;;;4.20;99.90;;;;;;5157487;27;20864;-53
2022/01/28 02:24:43;;;;;;;2.17;0.80;;;4.10;99.90;;;;;;5157470;27;20413;-51
2022/01/28 02:27:12;;;;;;;1.30;0.75;;;4.10;99.90;;;;;;5157000;27;20536;-54
2022/01/28 02:29:41;;;;;;;1.67;0.90;;;4.10;99.90;;;;;;5156088;27;20439;-55
2022/01/28 02:32:09;;;;;;;1.10;0.70;;;4.20;99.90;;;;;;5156966;27;20431;-53
2022/01/28 02:34:38;;;;;;;1.73;0.80;;;4.20;99.90;;;;;;5157198;27;20416;-55
2022/01/28 02:37:05;;;;;;;1.50;0.80;;;4.10;99.90;;;;;;5157317;27;20428;-53
2022/01/28 02:39:34;;;;;;;1.47;0.80;;;4.00;99.90;;;;;;5157617;27;20421;-52
2022/01/28 02:42:11;;;;;;;3.00;0.80;;;3.90;99.90;;;;;;5156731;27;20849;-53
2022/01/28 02:44:46;;;;;;;1.50;0.90;;;3.90;99.90;;;;;;5157094;27;20409;-53
2022/01/28 02:47:16;;;;;;;1.27;0.70;;;3.90;99.90;;;;;;5155953;27;20431;-51
2022/01/28 02:49:45;;;;;;;1.17;0.70;;;4.00;99.90;;;;;;5155782;27;20417;-48
2022/01/28 02:52:19;;;;;;;1.30;0.80;;;4.00;99.90;;;;;;5155289;27;20499;-52
2022/01/28 02:54:49;;;;;;;1.55;0.80;;;4.10;99.90;;;;;;5155515;27;20424;-54
2022/01/28 02:57:22;;;;;;;1.00;0.70;;;4.00;99.90;;;;;;5155619;27;20785;-50
2022/01/28 02:59:49;;;;;;;1.30;0.63;;;4.10;99.90;;;;;;5155204;27;20416;-49
2022/01/28 03:02:16;;;;;;;1.10;0.70;;;4.00;99.90;;;;;;5156305;27;20456;-50
2022/01/28 03:07:27;;;;;;;1.20;0.80;;;3.90;99.90;;;;;;5156528;27;20408;-50
2022/01/28 03:10:25;;;;;;;2.10;0.80;;;3.90;99.90;;;;;;5156851;27;20428;-52
2022/01/28 03:13:03;;;;;;;1.50;0.80;;;3.80;99.90;;;;;;5156601;27;20424;-50
2022/01/28 03:15:32;;;;;;;1.38;0.80;;;3.80;99.90;;;;;;5156031;27;20472;-50
2022/01/28 03:18:10;;;;;;;2.40;0.80;;;3.90;99.90;;;;;;5156669;27;20491;-53
2022/01/28 03:20:41;;;;;;;1.30;0.98;;;3.90;99.90;;;;;;5156454;27;20447;-50
2022/01/28 03:23:08;;;;;;;1.30;0.70;;;3.90;99.90;;;;;;5156497;27;20503;-53
2022/01/28 03:25:42;;;;;;;1.60;0.70;;;3.90;99.90;;;;;;5155690;27;20429;-53
2022/01/28 03:28:08;;;;;;;1.70;0.70;;;3.90;99.90;;;;;;5154563;27;20419;-51
2022/01/28 03:30:35;;;;;;;1.30;0.70;;;4.00;99.90;;;;;;5154309;27;20842;-55
2022/01/28 03:33:03;;;;;;;1.58;0.77;;;4.00;99.90;;;;;;5155807;27;20462;-55
2022/01/28 03:35:30;;;;;;;1.48;0.82;;;4.10;99.90;;;;;;5155827;27;21549;-52
2022/01/28 03:38:00;;;;;;;1.40;0.80;;;4.20;99.90;;;;;;5155654;27;20420;-56
2022/01/28 03:40:28;;;;;;;1.10;0.75;;;4.10;99.90;;;;;;5154997;27;20417;-53
2022/01/28 03:42:56;;;;;;;1.50;0.80;;;4.20;99.90;;;;;;5155162;27;20440;-53
2022/01/28 03:45:23;;;;;;;1.50;0.80;;;4.20;99.90;;;;;;5154784;27;20467;-51
2022/01/28 03:47:50;;;;;;;1.50;0.82;;;4.20;99.90;;;;;;5154771;27;20471;-54
2022/01/28 03:50:17;;;;;;;2.53;0.90;;;4.30;99.90;;;;;;5154380;27;20868;-54
2022/01/28 03:52:44;;;;;;;1.40;0.80;;;4.30;99.90;;;;;;5154185;27;20445;-54
2022/01/28 03:55:11;;;;;;;1.90;0.80;;;4.30;99.90;;;;;;5156863;27;20456;-54
2022/01/28 03:57:38;;;;;;;1.40;0.80;;;4.30;99.90;;;;;;5160128;27;20417;-52
2022/01/28 04:00:08;;;;;;;1.50;0.77;;;4.40;99.90;;;;;;5159133;27;20780;-53
2022/01/28 04:02:38;;;;;;;1.60;0.80;;;4.40;99.90;;;;;;5160108;27;20456;-54
2022/01/28 04:13:18;;;;;;;2.10;0.90;;;4.30;99.90;;;;;;5159583;27;20415;-53
2022/01/28 04:16:03;;;;;;;1.70;0.80;;;4.30;99.90;;;;;;5159686;27;20405;-49
2022/01/28 04:18:30;;;;;;;1.75;0.80;;;4.20;99.90;;;;;;5159732;27;20441;-51
2022/01/28 04:20:57;;;;;;;1.27;0.70;;;4.20;99.90;;;;;;5159976;27;20432;-50
2022/01/28 04:23:24;;;;;;;2.10;1.00;;;4.20;99.90;;;;;;5160139;27;20421;-54
2022/01/28 04:25:51;;;;;;;1.70;0.90;;;4.20;99.90;;;;;;5159887;27;20452;-51
2022/01/28 04:28:18;;;;;;;2.30;0.80;;;4.30;99.90;;;;;;5159667;27;20448;-51
2022/01/28 04:30:47;;;;;;;2.10;0.90;;;4.10;99.90;;;;;;5159546;27;20413;-53
2022/01/28 04:33:14;;;;;;;2.50;0.80;;;4.20;99.90;;;;;;5159504;27;20421;-53
2022/01/28 04:35:41;;;;;;;2.17;0.85;;;4.10;99.90;;;;;;5159623;27;20440;-54
2022/01/28 04:38:20;;;;;;;1.70;0.85;;;4.20;99.90;;;;;;5159360;27;20519;-55
2022/01/28 04:40:57;;;;;;;2.10;0.90;;;4.10;99.90;;;;;;5159862;27;20415;-53
2022/01/28 04:43:29;;;;;;;2.40;0.90;;;4.10;99.90;;;;;;5159654;27;20427;-53
2022/01/28 04:46:06;;;;;;;1.30;0.80;;;4.20;99.90;;;;;;5159358;27;20432;-55
2022/01/28 04:48:39;;;;;;;1.80;0.80;;;4.10;99.90;;;;;;5159115;27;20421;-53
2022/01/28 04:51:16;;;;;;;1.50;0.90;;;4.20;99.90;;;;;;5158389;27;20413;-54
2022/01/28 04:53:55;;;;;;;1.30;0.80;;;4.10;99.90;;;;;;5158011;27;20794;-53
2022/01/28 04:56:28;;;;;;;1.70;0.90;;;4.20;99.90;;;;;;5158089;27;20456;-54
2022/01/28 05:02:05;;;;;;;2.30;0.90;;;4.20;99.90;;;;;;5155381;27;20396;-54
2022/01/28 05:10:53;;;;;;;1.73;0.90;;;4.10;99.90;;;;;;5149300;27;20405;-56
2022/01/28 05:13:52;;;;;;;2.80;0.90;;;4.10;99.90;;;;;;5158878;27;20904;-53
2022/01/28 05:16:56;;;;;;;1.88;0.90;;;4.20;99.90;;;;;;5158708;27;20417;-49
2022/01/28 05:25:32;;;;;;;1.60;0.85;;;4.00;99.90;;;;;;5156890;27;20452;-53
2022/01/28 05:27:52;;;;;;;2.67;0.80;;;3.90;99.90;;;;;;5156739;27;20416;-53
2022/01/28 05:30:19;;;;;;;3.35;1.00;;;3.80;99.90;;;;;;5155996;27;20417;-54
2022/01/28 05:32:45;;;;;;;3.10;0.80;;;3.90;99.90;;;;;;5154786;27;20452;-55
2022/01/28 05:35:14;;;;;;;1.95;0.90;;;3.90;99.90;;;;;;5155417;27;20433;-55
2022/01/28 05:37:41;;;;;;;1.83;0.90;;;4.00;99.90;;;;;;5156384;27;20444;-52
2022/01/28 05:40:08;;;;;;;2.63;0.80;;;3.80;99.90;;;;;;5157018;27;20457;-54
2022/01/28 05:42:35;;;;;;;2.20;0.90;;;3.80;99.90;;;;;;5157855;27;20505;-56
2022/01/28 05:45:02;;;;;;;1.40;0.80;;;4.00;99.90;;;;;;5157518;27;20460;-54
2022/01/28 05:47:29;;;;;;;1.58;0.90;;;4.10;99.90;;;;;;5157477;27;20487;-53
2022/01/28 05:49:56;;;;;;;2.17;0.90;;;4.00;99.90;;;;;;5157232;27;20420;-55
2022/01/28 05:52:24;;;;;;;2.35;0.90;;;3.90;99.90;;;;;;5157232;27;20473;-54
2022/01/28 05:54:51;;;;;;;1.90;1.00;;;3.80;99.90;;;;;;5157098;27;20814;-51
2022/01/28 05:57:18;;;;;;;2.88;1.00;;;3.70;99.90;;;;;;5155540;27;20625;-54
2022/01/28 05:59:45;;;;;;;1.75;1.00;;;3.80;99.90;;;;;;5150655;27;20450;-56
2022/01/28 06:02:12;;;;;;;3.80;0.90;;;3.70;99.90;;;;;;5151842;27;20828;-51
2022/01/28 06:04:39;;;;;;;3.92;1.10;;;3.70;99.90;;;;;;5156986;27;20503;-53
2022/01/28 06:07:06;;;;;;;2.30;0.97;;;3.80;99.90;;;;;;5157475;27;20425;-48
2022/01/28 06:09:34;;;;;;;2.10;1.00;;;3.80;99.90;;;;;;5156531;27;20891;-52
2022/01/28 06:12:01;;;;;;;3.40;1.00;;;3.90;99.90;;;;;;5155848;27;20459;-52
2022/01/28 06:14:28;;;;;;;2.80;1.20;;;3.80;99.90;;;;;;5155576;27;20748;-53
2022/01/28 06:16:55;;;;;;;2.45;1.10;;;3.70;99.90;;;;;;5155459;27;20448;-54
2022/01/28 06:19:22;;;;;;;3.30;1.40;;;3.70;99.90;;;;;;5152578;27;20420;-54
2022/01/28 06:21:49;;;;;;;2.50;1.00;;;3.70;99.90;;;;;;5148680;27;20429;-55
2022/01/28 06:24:16;;;;;;;2.80;1.00;;;3.60;99.90;;;;;;5154481;27;20452;-53
2022/01/28 06:26:44;;;;;;;1.73;0.93;;;3.60;99.90;;;;;;5154862;27;20464;-53
2022/01/28 06:29:12;;;;;;;1.70;0.90;;;3.80;99.90;;;;;;5155778;27;20440;-53
2022/01/28 06:31:41;;;;;;;2.88;0.90;;;3.80;99.90;;;;;;5155138;27;20417;-53
2022/01/28 06:34:08;;;;;;;2.10;1.05;;;3.80;99.90;;;;;;5155191;27;20891;-52
2022/01/28 06:36:35;;;;;;;2.08;1.00;;;3.80;99.90;;;;;;5154623;27;20891;-54
2022/01/28 06:39:02;;;;;;;2.47;0.98;;;3.80;99.90;;;;;;5153952;27;20613;-52
2022/01/28 06:41:30;;;;;;;2.10;1.00;;;3.80;99.90;;;;;;5152204;27;20816;-54
2022/01/28 06:43:59;;;;;;;1.60;1.05;;;3.70;99.90;;;;;;5152319;27;20427;-52
2022/01/28 06:46:26;;;;;;;2.50;1.10;;;3.80;99.90;;;;;;5151409;27;20639;-53
2022/01/28 06:48:53;;;;;;;2.63;1.00;;;3.90;99.90;;;;;;5151694;27;20890;-54
2022/01/28 06:51:20;;;;;;;2.53;0.90;;;3.80;99.90;;;;;;5152162;27;20441;-55
2022/01/28 06:53:47;;;;;;;3.50;1.00;;;3.80;99.90;;;;;;5152209;27;20858;-54
2022/01/28 06:56:14;;;;;;;2.90;1.00;;;3.80;99.90;;;;;;5143890;27;20458;-54
2022/01/28 06:58:41;;;;;;;2.38;1.23;;;3.80;99.90;;;;;;5136978;27;20471;-51
2022/01/28 07:01:09;;;;;;;2.90;1.10;;;3.70;99.90;;;;;;5132439;27;20531;-55
2022/01/28 07:03:36;;;;;;;2.35;1.10;;;3.70;99.90;;;;;;5125858;27;20958;-54
2022/01/28 07:06:03;;;;;;;2.45;1.10;;;3.70;99.90;;;;;;5134476;27;20434;-54
2022/01/28 07:08:30;;;;;;;4.18;1.20;;;3.70;99.90;;;;;;5134859;27;20435;-49
2022/01/28 07:10:57;;;;;;;2.90;1.20;;;3.70;99.90;;;;;;5134347;28;20754;-50
2022/01/28 07:13:24;;;;;;;5.22;1.70;;;3.90;99.90;;;;;;5133225;28;20464;-52
2022/01/28 07:15:52;;;;;;;2.72;1.02;;;3.80;99.90;;;;;;5133392;28;20487;-55
2022/01/28 07:18:20;;;;;;;3.00;1.10;;;3.70;99.90;;;;;;5133723;28;20437;-53
2022/01/28 07:20:47;;;;;;;3.33;1.10;;;3.70;99.90;;;;;;5134117;28;20877;-49
2022/01/28 07:23:14;;;;;;;3.50;1.00;;;3.70;99.90;;;;;;5133922;28;20802;-59
2022/01/28 07:25:41;;;;;;;2.10;1.00;;;3.90;99.90;;;;;;5147777;27;20460;-59
2022/01/28 07:28:08;;;;;;;2.92;0.90;;;3.90;99.90;;;;;;5152495;27;20821;-59
2022/01/28 07:30:35;;;;;;;1.80;1.00;;;3.90;99.90;;;;;;5156664;27;20421;-59
2022/01/28 07:33:05;;;;;;;2.20;1.05;;;3.90;99.90;;;;;;5156555;27;20423;-59
2022/01/28 07:35:34;;;;;;;3.58;1.10;;;4.10;99.90;;;;;;5157758;27;20425;-59
2022/01/28 07:38:01;;;;;;;3.33;1.00;;;4.30;99.90;;;;;;5156513;27;20437;-58
2022/01/28 07:40:28;;;;;;;2.17;1.00;;;4.30;99.90;;;;;;5156212;27;20464;-57
2022/01/28 07:42:55;;;;;;;2.58;1.13;;;4.40;99.90;;;;;;5155391;27;20542;-58
2022/01/28 07:45:22;;;;;;;2.90;1.20;;;4.40;99.90;;;;;;5155536;27;20894;-58
2022/01/28 07:47:49;;;;;;;1.75;1.00;;;4.30;99.90;;;;;;5155671;27;20803;-57
2022/01/28 07:50:17;;;;;;;2.80;1.00;;;4.30;99.90;;;;;;5155602;27;20425;-58
2022/01/28 07:52:45;;;;;;;3.70;1.00;;;4.30;99.90;;;;;;5156197;27;20439;-58
2022/01/28 07:55:14;;;;;;;1.80;1.17;;;4.40;99.90;;;;;;5154218;27;20509;-58
2022/01/28 07:57:42;;;;;;;2.30;1.00;;;4.50;99.90;;;;;;5156819;27;20503;-57
2022/01/28 08:00:12;;;;;;;2.20;1.20;;;4.60;99.90;;;;;;5155555;27;20428;-57
2022/01/28 08:02:39;;;;;;;3.08;1.00;;;4.40;99.90;;;;;;5167324;27;20442;-58
2022/01/28 08:05:06;;;;;;;1.63;0.93;;;4.40;99.90;;;;;;5157143;27;20868;-58
2022/01/28 08:07:33;;;;;;;1.98;0.90;;;4.40;99.90;;;;;;5173853;27;20905;-58
2022/01/28 08:10:01;;;;;;;3.80;1.10;;;4.40;99.90;;;;;;5164667;27;20514;-58
2022/01/28 08:12:28;;;;;;;2.83;1.00;;;4.50;99.90;;;;;;5168069;27;20888;-59
2022/01/28 08:14:55;;;;;;;2.10;0.98;;;4.60;99.90;;;;;;5170914;27;20457;-58
2022/01/28 08:17:25;;;;;;;2.28;0.95;;;4.70;99.90;;;;;;5153722;27;20792;-58
2022/01/28 08:19:52;;;;;;;2.45;0.90;;;4.80;99.90;;;;;;5162658;27;20447;-59
2022/01/28 08:22:19;;;;;;;2.00;1.00;;;4.70;99.90;;;;;;5168790;27;20448;-59
2022/01/28 08:24:46;;;;;;;4.10;1.92;;;4.60;99.90;;;;;;5167821;27;20419;-58
2022/01/28 08:27:14;;;;;;;2.25;1.27;;;4.70;99.90;;;;;;5158192;27;20520;-59
2022/01/28 08:29:41;;;;;;;2.65;1.10;;;4.60;99.90;;;;;;5174262;27;20855;-58
2022/01/28 08:32:09;;;;;;;2.95;1.27;;;4.70;99.90;;;;;;5161709;27;20410;-58
2022/01/28 08:34:36;;;;;;;2.00;1.00;;;4.70;99.90;;;;;;5166128;27;20424;-59
2022/01/28 08:37:04;;;;;;;1.67;0.90;;;4.70;99.90;;;;;;5172014;27;20446;-59
2022/01/28 08:39:31;;;;;;;3.33;0.90;;;4.70;99.90;;;;;;5161388;27;20428;-58
2022/01/28 08:41:58;;;;;;;1.30;0.80;;;4.80;99.90;;;;;;5172419;27;20747;-57
2022/01/28 08:44:28;;;;;;;1.55;0.80;;;4.80;99.90;;;;;;5164402;27;20448;-58
2022/01/28 08:46:55;;;;;;;1.70;0.90;;;4.80;99.90;;;;;;5171143;27;20461;-58
2022/01/28 08:49:21;;;;;;;1.95;0.82;;;5.10;99.90;;;;;;5160396;27;20459;-57
2022/01/28 08:51:49;;;;;;;1.80;0.80;;;4.90;99.90;;;;;;5166802;27;20916;-58
2022/01/28 08:54:16;;;;;;;4.63;0.90;;;4.90;99.90;;;;;;5156189;27;20444;-58
2022/01/28 08:56:45;;;;;;;2.03;0.80;;;5.40;99.90;;;;;;5132149;27;20421;-58
2022/01/28 08:59:12;;;;;;;3.10;0.80;;;5.70;99.90;;;;;;5136162;27;20418;-59
2022/01/28 09:01:41;;;;;;;1.80;0.90;;;5.50;99.90;;;;;;5133719;27;20462;-58
2022/01/28 09:04:08;;;;;;;1.90;0.85;;;5.40;99.90;;;;;;5135388;27;20499;-58
2022/01/28 09:06:35;;;;;;;2.15;0.70;;;5.20;99.90;;;;;;5134867;27;20476;-58
2022/01/28 09:09:02;;;;;;;1.85;0.70;;;5.10;99.90;;;;;;5136250;27;20454;-58
2022/01/28 09:11:45;;;;;;;1.35;0.70;;;5.30;99.90;;;;;;5135979;27;20430;-58
2022/01/28 09:14:12;;;;;;;2.00;0.80;;;5.20;99.90;;;;;;5127716;27;20901;-57
2022/01/28 09:16:41;;;;;;;1.80;0.88;;;5.30;99.90;;;;;;5135080;27;20422;-58
2022/01/28 09:19:08;;;;;;;3.22;0.70;;;5.40;99.90;;;;;;5133827;27;20737;-58
2022/01/28 09:21:35;;;;;;;2.47;0.80;;;5.60;99.90;;;;;;5133977;27;20430;-56
2022/01/28 09:24:02;;;;;;;3.28;0.80;;;5.70;99.90;;;;;;5135720;27;20438;-57
2022/01/28 09:26:29;;;;;;;2.90;0.73;;;5.80;99.90;;;;;;5135101;27;20904;-58
2022/01/28 09:28:56;;;;;;;2.90;0.70;;;6.00;99.90;;;;;;5134766;27;20527;-55
2022/01/28 09:31:23;;;;;;;1.67;0.70;;;6.20;99.90;;;;;;5134053;27;20437;-55
2022/01/28 09:33:52;;;;;;;1.38;0.70;;;6.40;99.90;;;;;;5132850;27;20418;-56
2022/01/28 09:36:19;;;;;;;1.53;0.70;;;6.50;99.90;;;;;;5133361;27;20505;-55
2022/01/28 09:38:46;;;;;;;1.50;0.60;;;6.50;99.90;;;;;;5132498;27;20410;-55
2022/01/28 09:41:14;;;;;;;1.73;0.68;;;6.10;99.90;;;;;;5135421;27;20574;-55
2022/01/28 09:43:43;;;;;;;1.90;0.68;;;6.20;99.90;;;;;;5133742;27;20922;-54
2022/01/28 09:46:11;;;;;;;1.20;0.65;;;6.40;99.90;;;;;;5132074;27;20721;-55
2022/01/28 09:48:39;;;;;;;1.00;0.60;;;6.40;99.90;;;;;;5131847;27;20806;-53
2022/01/28 09:51:08;;;;;;;2.50;0.60;;;6.40;99.90;;;;;;5131752;27;20482;-56
2022/01/28 09:53:35;;;;;;;1.73;0.50;;;6.30;99.90;;;;;;5132829;27;20454;-59
2022/01/28 09:56:02;;;;;;;1.42;0.60;;;6.30;99.90;;;;;;5148750;27;20766;-60
2022/01/28 09:58:29;;;;;;;2.20;0.60;;;6.40;99.90;;;;;;5154121;27;20460;-59
2022/01/28 10:00:56;;;;;;;2.00;0.70;;;6.50;99.90;;;;;;5152566;27;20886;-58
2022/01/28 10:03:26;;;;;;;2.40;0.70;;;6.70;99.90;;;;;;5154039;27;20452;-60
2022/01/28 10:05:53;;;;;;;0.88;0.40;;;6.80;99.90;;;;;;5155284;27;20423;-57
2022/01/28 10:08:24;;;;;;;1.40;0.40;;;6.60;99.90;;;;;;5155625;27;20493;-58
2022/01/28 10:10:58;;;;;;;0.70;0.40;;;6.80;99.90;;;;;;5155966;27;20432;-58
2022/01/28 10:13:31;;;;;;;1.27;0.50;;;6.70;99.90;;;;;;5155517;27;20820;-58
2022/01/28 10:16:01;;;;;;;0.70;0.40;;;6.70;99.90;;;;;;5154002;27;20498;-58
2022/01/28 10:18:43;;;;;;;1.08;0.40;;;6.70;99.90;;;;;;5154223;27;20405;-59
2022/01/28 10:21:28;;;;;;;1.40;0.40;;;6.60;99.90;;;;;;5155660;27;20886;-59
2022/01/28 10:24:12;;;;;;;1.60;0.40;;;6.80;99.90;;;;;;5140183;27;20412;-59
2022/01/28 10:26:47;;;;;;;0.80;0.50;;;6.80;99.90;;;;;;5143019;27;20450;-59
2022/01/28 10:29:17;;;;;;;1.00;0.50;;;6.90;99.90;;;;;;5143750;27;20433;-59
2022/01/28 10:31:58;;;;;;;1.20;0.40;;;7.20;99.90;;;;;;5138809;27;20495;-58
2022/01/28 10:34:29;;;;;;;0.60;0.30;;;7.10;99.90;;;;;;5138945;27;20417;-59
2022/01/28 10:37:14;;;;;;;1.20;0.30;;;7.00;99.90;;;;;;5133590;27;20523;-60
2022/01/28 10:39:46;;;;;;;1.50;0.43;;;6.90;99.90;;;;;;5134615;27;20897;-59
2022/01/28 10:42:14;;;;;;;2.20;0.50;;;6.90;99.90;;;;;;5144195;27;20432;-58
2022/01/28 10:44:57;;;;;;;1.20;0.60;;;7.10;99.90;;;;;;5146187;27;20448;-58
2022/01/28 10:47:36;;;;;;;1.95;0.50;;;7.00;99.90;;;;;;5142333;27;20432;-58
2022/01/28 10:50:20;;;;;;;2.30;0.50;;;7.10;99.90;;;;;;5146800;27;20452;-59
2022/01/28 10:52:57;;;;;;;0.70;0.35;;;7.30;99.90;;;;;;5138741;27;20424;-59
2022/01/28 10:55:25;;;;;;;1.20;0.40;;;7.20;99.90;;;;;;5132281;27;20756;-60
2022/01/28 10:58:00;;;;;;;2.22;0.40;;;7.20;99.90;;;;;;5140779;27;20449;-61
2022/01/28 11:00:29;;;;;;;0.95;0.40;;;7.00;99.90;;;;;;5138421;27;20406;-58
2022/01/28 11:02:59;;;;;;;1.00;0.40;;;7.00;99.90;;;;;;5141995;27;20472;-61
2022/01/28 11:05:27;;;;;;;1.50;0.32;;;6.90;99.90;;;;;;5149430;27;20504;-60
2022/01/28 11:07:55;;;;;;;1.60;0.30;;;7.00;99.90;;;;;;5148465;27;20502;-58
2022/01/28 11:10:22;;;;;;;1.58;0.30;;;7.20;99.90;;;;;;5133554;27;20457;-58
2022/01/28 11:12:51;;;;;;;1.08;0.60;;;7.10;99.90;;;;;;5139914;27;20466;-58
2022/01/28 11:15:19;;;;;;;1.33;0.40;;;7.20;99.90;;;;;;5148849;27;20628;-59
2022/01/28 11:17:48;;;;;;;1.10;0.30;;;7.10;99.90;;;;;;5146542;27;20905;-58
2022/01/28 11:20:18;;;;;;;3.38;1.20;;;7.10;99.90;;;;;;5149960;27;20456;-55
2022/01/28 11:23:00;;;;;;;0.60;0.37;;;7.10;99.90;;;;;;5141109;27;20523;-57
2022/01/28 11:26:07;;;;;;;1.58;0.40;;;7.20;99.90;;;;;;5139518;27;20432;-56
2022/01/28 11:28:43;;;;;;;1.15;0.40;;;7.30;99.90;;;;;;5149265;27;20875;-60
2022/01/28 11:31:11;;;;;;;1.40;0.40;;;7.40;99.90;;;;;;5129177;27;20529;-60
2022/01/28 11:33:44;;;;;;;0.80;0.40;;;7.50;99.90;;;;;;5134282;27;20429;-60
2022/01/28 11:36:11;;;;;;;1.10;0.40;;;7.70;99.90;;;;;;5140058;27;20497;-60
2022/01/28 11:38:44;;;;;;;2.27;0.50;;;7.60;99.90;;;;;;5150723;27;20449;-61
2022/01/28 11:41:14;;;;;;;0.73;0.40;;;7.80;99.90;;;;;;5137040;27;20425;-61
2022/01/28 11:43:49;;;;;;;0.60;0.40;;;8.00;99.90;;;;;;5131442;27;20545;-59
2022/01/28 11:46:22;;;;;;;1.08;0.50;;;7.80;99.90;;;;;;5152020;27;20410;-61
2022/01/28 11:49:18;;;;;;;0.80;0.40;;;8.00;99.90;;;;;;5151195;27;20468;-60
2022/01/28 11:51:45;;;;;;;1.70;0.30;;;7.80;99.90;;;;;;5130933;27;20499;-60
2022/01/28 11:54:14;;;;;;;0.90;0.40;;;7.90;99.90;;;;;;5146128;27;20426;-58
2022/01/28 11:57:02;;;;;;;1.70;0.40;;;7.60;99.90;;;;;;5144999;27;20513;-59
2022/01/28 11:59:31;;;;;;;0.80;0.35;;;7.40;99.90;;;;;;5149929;27;20425;-59
2022/01/28 12:02:10;;;;;;;2.00;0.30;;;7.60;99.90;;;;;;5139371;27;20444;-59
2022/01/28 12:04:38;;;;;;;1.10;0.40;;;7.50;99.90;;;;;;5126033;27;20422;-59
2022/01/28 12:07:10;;;;;;;1.33;0.40;;;7.60;99.90;;;;;;5144560;27;20445;-59
2022/01/28 12:09:41;;;;;;;1.40;0.50;;;7.50;99.90;;;;;;5146220;27;20432;-59
2022/01/28 12:12:10;;;;;;;1.80;0.30;;;7.60;99.90;;;;;;5152083;27;20779;-59
2022/01/28 12:15:07;;;;;;;2.00;0.40;;;7.40;99.90;;;;;;5141980;27;20428;-59
2022/01/28 12:17:43;;;;;;;1.35;0.30;;;7.40;99.90;;;;;;5144586;27;20439;-58
2022/01/28 12:20:23;;;;;;;1.20;0.40;;;7.60;99.90;;;;;;5152371;27;20449;-59
2022/01/28 12:23:04;;;;;;;1.20;0.30;;;7.50;99.90;;;;;;5141814;27;20861;-59
2022/01/28 12:25:51;;;;;;;1.30;0.40;;;7.50;99.90;;;;;;5154689;27;20456;-59
2022/01/28 12:28:20;;;;;;;1.70;0.40;;;7.70;99.90;;;;;;5138143;27;20483;-58
2022/01/28 12:30:50;;;;;;;0.80;0.40;;;7.40;99.90;;;;;;5139987;27;20425;-60
2022/01/28 12:33:22;;;;;;;2.00;0.40;;;7.30;99.90;;;;;;5150918;27;20839;-59
2022/01/28 12:35:52;;;;;;;1.38;0.40;;;7.40;99.90;;;;;;5144779;27;20699;-59
2022/01/28 12:38:21;;;;;;;1.00;0.40;;;7.50;99.90;;;;;;5140257;27;20788;-59
2022/01/28 12:40:52;;;;;;;1.48;0.30;;;7.60;99.90;;;;;;5150082;27;20493;-59
2022/01/28 12:43:20;;;;;;;1.40;0.50;;;7.80;99.90;;;;;;5156533;27;20832;-59
2022/01/28 12:45:58;;;;;;;2.10;1.10;;;7.50;99.90;;;;;;5156458;27;20468;-59
2022/01/28 12:48:25;;;;;;;1.40;0.50;;;7.70;99.90;;;;;;5147735;27;20428;-59
2022/01/28 12:50:54;;;;;;;0.80;0.50;;;7.60;99.90;;;;;;5144398;27;20456;-59
2022/01/28 12:53:32;;;;;;;1.00;0.50;;;7.70;99.90;;;;;;5154547;27;20463;-59
2022/01/28 12:56:00;;;;;;;1.00;0.50;;;7.70;99.90;;;;;;5149566;27;20499;-59
2022/01/28 12:58:35;;;;;;;1.77;0.60;;;7.80;99.90;;;;;;5130900;27;20415;-58
2022/01/28 13:01:09;;;;;;;1.05;0.47;;;7.70;99.90;;;;;;5146931;27;20433;-59
2022/01/28 13:03:44;;;;;;;1.30;0.70;;;7.70;99.90;;;;;;5117337;27;20424;-59
2022/01/28 13:06:41;;;;;;;1.23;0.50;;;7.70;99.90;;;;;;5137113;27;20783;-59
2022/01/28 13:09:13;;;;;;;0.90;0.50;;;7.70;99.90;;;;;;5143770;27;20429;-57
2022/01/28 13:11:44;;;;;;;0.80;0.50;;;7.60;99.90;;;;;;5148016;27;20920;-59
2022/01/28 13:14:12;;;;;;;1.80;0.50;;;7.60;99.90;;;;;;5154530;27;20836;-59
2022/01/28 13:16:43;;;;;;;2.75;0.60;;;7.60;99.90;;;;;;5146966;27;20463;-58
2022/01/28 13:19:13;;;;;;;2.22;0.60;;;7.50;99.90;;;;;;5154076;27;20503;-58
2022/01/28 13:21:41;;;;;;;1.65;0.60;;;7.30;99.90;;;;;;5154225;27;20412;-59
2022/01/28 13:24:12;;;;;;;1.20;0.52;;;7.30;99.90;;;;;;5155059;27;20436;-59
2022/01/28 13:26:57;;;;;;;1.27;0.60;;;7.40;99.90;;;;;;5146271;27;20929;-59
2022/01/28 13:29:36;;;;;;;2.20;0.80;;;7.30;99.90;;;;;;5141015;27;20425;-58
2022/01/28 13:32:07;;;;;;;1.80;0.80;;;7.10;99.90;;;;;;5150463;27;20474;-57
2022/01/28 13:34:48;;;;;;;1.48;0.80;;;6.90;99.90;;;;;;5126271;27;20438;-59
2022/01/28 13:37:37;;;;;;;1.80;0.80;;;6.90;99.90;;;;;;5145544;27;20424;-59
2022/01/28 13:40:05;;;;;;;1.83;0.85;;;6.80;99.90;;;;;;5156039;27;20424;-59
2022/01/28 13:42:32;;;;;;;2.40;0.80;;;6.70;99.90;;;;;;5156517;27;20436;-58
2022/01/28 13:45:03;;;;;;;4.10;0.90;;;6.60;99.90;;;;;;5156175;27;20470;-60
2022/01/28 13:47:49;;;;;;;3.55;0.85;;;6.50;99.90;;;;;;5157056;27;20420;-60
2022/01/28 13:50:25;;;;;;;2.65;1.00;;;6.40;99.90;;;;;;5156391;27;20416;-60
2022/01/28 13:53:20;;;;;;;2.30;1.00;;;6.40;99.90;;;;;;5152926;27;20665;-61
2022/01/28 13:55:49;;;;;;;1.70;0.90;;;6.40;99.90;;;;;;5145079;27;20464;-60
2022/01/28 13:58:16;;;;;;;1.20;0.90;;;6.60;99.90;;;;;;5153517;27;20476;-60
2022/01/28 14:00:45;;;;;;;1.53;0.90;;;6.50;99.90;;;;;;5152688;27;20875;-60
2022/01/28 14:03:18;;;;;;;2.22;0.98;;;6.50;99.90;;;;;;5153354;27;20408;-60
2022/01/28 14:05:49;;;;;;;1.45;0.80;;;6.40;99.90;;;;;;5153968;27;20515;-60
2022/01/28 14:08:16;;;;;;;2.80;1.00;;;6.50;99.90;;;;;;5155612;27;20814;-59